createdAt,value
2023-02-27T00:02:14.758Z,8.50
2023-02-27T00:04:41.566Z,8.90
2023-02-27T00:07:08.777Z,9.20
2023-02-27T00:09:35.505Z,10.10
2023-02-27T00:12:02.568Z,10.10
2023-02-27T00:14:29.949Z,24.80
2023-02-27T00:16:56.668Z,12.40
2023-02-27T00:19:23.948Z,11.80
2023-02-27T00:21:50.623Z,12.10
2023-02-27T00:24:17.330Z,12.70
2023-02-27T00:26:44.073Z,13.20
2023-02-27T00:29:11.011Z,14.40
2023-02-27T00:31:37.737Z,14.00
2023-02-27T00:34:04.431Z,14.40
2023-02-27T00:36:31.185Z,14.70
2023-02-27T00:38:57.942Z,15.60
2023-02-27T00:41:25.000Z,16.50
2023-02-27T00:43:52.000Z,16.30
2023-02-27T00:46:19.746Z,16.60
2023-02-27T00:48:46.482Z,20.00
2023-02-27T00:51:13.435Z,17.50
2023-02-27T00:53:40.173Z,18.10
2023-02-27T00:56:07.461Z,18.10
2023-02-27T00:58:34.137Z,18.60
2023-02-27T01:01:00.944Z,19.60
2023-02-27T01:03:27.798Z,20.20
2023-02-27T01:05:54.522Z,21.00
2023-02-27T01:08:21.319Z,20.60
2023-02-27T01:10:48.014Z,21.10
2023-02-27T01:13:14.717Z,21.90
2023-02-27T01:15:41.481Z,22.30
2023-02-27T01:18:08.165Z,26.00
2023-02-27T01:20:34.835Z,23.80
2023-02-27T01:23:01.505Z,23.60
2023-02-27T01:25:28.239Z,23.80
2023-02-27T01:27:55.066Z,24.40
2023-02-27T01:30:21.745Z,25.00
2023-02-27T01:32:48.408Z,25.60
2023-02-27T01:35:15.087Z,26.10
2023-02-27T01:37:41.804Z,26.90
2023-02-27T01:40:10.705Z,27.70
2023-02-27T01:42:37.562Z,28.30
2023-02-27T01:45:13.132Z,28.80
2023-02-27T01:47:43.881Z,28.60
2023-02-27T01:50:11.927Z,29.80
2023-02-27T01:52:40.748Z,30.00
2023-02-27T01:55:09.134Z,30.40
2023-02-27T01:57:36.534Z,30.70
2023-02-27T02:00:06.035Z,31.10
2023-02-27T02:02:40.635Z,31.50
2023-02-27T02:05:07.936Z,32.00
2023-02-27T02:07:36.223Z,32.60
2023-02-27T02:10:03.411Z,33.30
2023-02-27T02:12:34.863Z,51.90
2023-02-27T02:15:01.541Z,35.20
2023-02-27T02:17:44.260Z,35.40
2023-02-27T02:20:35.328Z,36.10
2023-02-27T02:23:23.320Z,37.20
2023-02-27T02:26:29.274Z,37.70
2023-02-27T02:29:37.499Z,38.60
2023-02-27T02:32:16.329Z,39.60
2023-02-27T02:35:07.075Z,40.30
2023-02-27T02:38:27.723Z,40.90
2023-02-27T02:41:15.615Z,41.80
2023-02-27T02:44:20.580Z,43.50
2023-02-27T02:46:55.763Z,43.30
2023-02-27T02:49:37.316Z,43.30
2023-02-27T02:52:41.101Z,44.00
2023-02-27T02:55:14.144Z,44.60
2023-02-27T02:57:49.439Z,45.10
2023-02-27T03:00:28.791Z,45.50
2023-02-27T03:03:03.434Z,46.80
2023-02-27T03:05:36.334Z,47.30
2023-02-27T03:08:11.760Z,46.70
2023-02-27T03:10:46.339Z,47.70
2023-02-27T03:13:29.549Z,48.10
2023-02-27T03:16:07.712Z,48.10
2023-02-27T03:18:56.776Z,48.30
2023-02-27T03:21:40.162Z,49.10
2023-02-27T03:24:12.654Z,49.70
2023-02-27T03:26:44.076Z,69.30
2023-02-27T03:29:15.066Z,70.30
2023-02-27T03:31:47.023Z,50.50
2023-02-27T03:34:23.668Z,51.60
2023-02-27T03:37:05.520Z,51.50
2023-02-27T03:39:49.413Z,52.20
2023-02-27T03:42:37.718Z,53.80
2023-02-27T03:45:34.982Z,53.70
2023-02-27T03:48:03.537Z,54.40
2023-02-27T03:50:30.627Z,54.10
2023-02-27T03:52:57.610Z,54.60
2023-02-27T03:55:34.841Z,54.60
2023-02-27T03:58:01.960Z,54.80
2023-02-27T04:00:29.240Z,55.80
2023-02-27T04:02:58.435Z,55.80
2023-02-27T04:05:25.820Z,56.60
2023-02-27T04:08:12.752Z,56.60
2023-02-27T04:10:52.723Z,57.20
2023-02-27T04:13:52.236Z,57.60
2023-02-27T04:16:24.561Z,57.70
2023-02-27T04:19:18.775Z,58.40
2023-02-27T04:21:48.205Z,58.60
2023-02-27T04:24:41.770Z,59.10
2023-02-27T04:27:47.190Z,59.40
2023-02-27T04:30:25.996Z,59.30
2023-02-27T04:33:06.200Z,59.70
2023-02-27T04:35:52.237Z,62.10
2023-02-27T04:38:29.681Z,61.20
2023-02-27T04:41:01.607Z,62.60
2023-02-27T04:43:29.315Z,61.90
2023-02-27T04:45:58.634Z,86.00
2023-02-27T04:48:33.168Z,63.10
2023-02-27T04:51:11.349Z,63.90
2023-02-27T04:53:48.584Z,65.00
2023-02-27T04:56:32.437Z,64.40
2023-02-27T04:59:06.057Z,65.00
2023-02-27T05:01:47.083Z,65.60
2023-02-27T05:04:18.158Z,67.20
2023-02-27T05:06:47.976Z,67.00
2023-02-27T05:09:30.421Z,66.60
2023-02-27T05:12:03.334Z,66.70
2023-02-27T05:14:47.183Z,67.50
2023-02-27T05:17:41.129Z,68.00
2023-02-27T05:20:09.271Z,68.50
2023-02-27T05:23:03.222Z,69.10
2023-02-27T05:25:35.257Z,68.50
2023-02-27T05:28:23.724Z,69.20
2023-02-27T05:30:57.115Z,69.20
2023-02-27T05:33:36.585Z,69.60
2023-02-27T05:36:18.112Z,69.50
2023-02-27T05:38:53.042Z,69.40
2023-02-27T05:41:28.125Z,69.40
2023-02-27T05:44:01.269Z,70.10
2023-02-27T05:46:31.770Z,70.80
2023-02-27T05:49:03.900Z,71.20
2023-02-27T05:51:33.446Z,70.70
2023-02-27T05:54:18.465Z,70.50
2023-02-27T05:56:47.665Z,71.20
2023-02-27T05:59:39.209Z,72.30
2023-02-27T06:02:06.378Z,72.70
2023-02-27T06:04:33.133Z,71.30
2023-02-27T06:07:00.403Z,71.70
2023-02-27T06:09:27.113Z,72.00
2023-02-27T06:11:53.805Z,72.10
2023-02-27T06:14:20.461Z,72.90
2023-02-27T06:16:47.213Z,73.20
2023-02-27T06:19:13.937Z,72.90
2023-02-27T06:21:40.665Z,74.10
2023-02-27T06:24:07.419Z,74.00
2023-02-27T06:26:34.171Z,74.40
2023-02-27T06:29:00.919Z,74.90
2023-02-27T06:31:27.577Z,74.90
2023-02-27T06:33:55.722Z,75.50
2023-02-27T06:36:23.090Z,75.20
2023-02-27T06:38:49.799Z,75.50
2023-02-27T06:41:16.519Z,77.20
2023-02-27T06:43:43.285Z,76.20
2023-02-27T06:46:10.001Z,76.10
2023-02-27T06:48:36.713Z,76.10
2023-02-27T06:51:03.648Z,76.50
2023-02-27T06:53:30.301Z,77.00
2023-02-27T06:55:57.063Z,78.70
2023-02-27T06:58:24.876Z,79.20
2023-02-27T07:00:51.905Z,78.70
2023-02-27T07:03:18.607Z,80.20
2023-02-27T07:05:45.313Z,80.50
2023-02-27T07:08:12.011Z,80.70
2023-02-27T07:10:39.978Z,82.40
2023-02-27T07:13:06.785Z,83.70
2023-02-27T07:15:33.546Z,82.00
2023-02-27T07:18:00.257Z,82.00
2023-02-27T07:20:26.964Z,82.20
2023-02-27T07:22:53.666Z,82.80
2023-02-27T07:25:20.410Z,83.70
2023-02-27T07:27:49.640Z,83.00
2023-02-27T07:30:17.250Z,83.10
2023-02-27T07:32:43.940Z,84.80
2023-02-27T07:35:11.941Z,83.50
2023-02-27T07:37:38.618Z,83.80
2023-02-27T07:40:07.565Z,83.50
2023-02-27T07:42:34.340Z,84.00
2023-02-27T07:45:01.667Z,83.40
2023-02-27T07:47:30.241Z,97.50
2023-02-27T07:49:57.010Z,85.40
2023-02-27T07:52:24.492Z,84.60
2023-02-27T07:54:51.222Z,97.80
2023-02-27T07:57:17.980Z,84.60
2023-02-27T07:59:44.682Z,84.70
2023-02-27T08:02:12.875Z,85.00
2023-02-27T08:04:39.630Z,85.30
2023-02-27T08:07:06.416Z,85.30
2023-02-27T08:09:33.077Z,85.90
2023-02-27T08:11:59.796Z,86.30
2023-02-27T08:14:26.469Z,85.00
2023-02-27T08:16:53.142Z,84.70
2023-02-27T08:19:19.817Z,82.70
2023-02-27T08:21:46.555Z,83.20
2023-02-27T08:24:13.224Z,84.10
2023-02-27T08:26:39.893Z,81.30
2023-02-27T08:29:06.635Z,80.70
2023-02-27T08:31:33.679Z,80.30
2023-02-27T08:34:09.970Z,80.20
2023-02-27T08:36:37.538Z,78.00
2023-02-27T08:39:04.936Z,77.20
2023-02-27T08:41:31.636Z,76.70
2023-02-27T08:43:58.434Z,75.20
2023-02-27T08:46:25.364Z,74.90
2023-02-27T08:48:52.268Z,75.30
2023-02-27T08:51:18.970Z,73.40
2023-02-27T08:53:45.673Z,71.80
2023-02-27T08:56:12.374Z,71.50
2023-02-27T08:58:39.425Z,71.10
2023-02-27T09:01:06.308Z,72.70
2023-02-27T09:03:33.115Z,71.90
2023-02-27T09:05:59.981Z,72.30
2023-02-27T09:08:26.769Z,70.90
2023-02-27T09:10:57.073Z,71.80
2023-02-27T09:13:23.973Z,71.10
2023-02-27T09:15:50.711Z,70.00
2023-02-27T09:18:17.408Z,70.60
2023-02-27T09:20:44.496Z,69.60
2023-02-27T09:23:11.252Z,69.90
2023-02-27T09:25:37.972Z,69.90
2023-02-27T09:28:04.797Z,68.90
2023-02-27T09:30:31.606Z,69.20
2023-02-27T09:32:58.303Z,68.50
2023-02-27T09:35:25.509Z,69.20
2023-02-27T09:37:52.681Z,69.30
2023-02-27T09:40:31.569Z,69.00
2023-02-27T09:43:08.271Z,69.70
2023-02-27T09:45:39.226Z,69.90
2023-02-27T09:48:24.210Z,69.90
2023-02-27T09:50:52.629Z,69.40
2023-02-27T09:53:29.867Z,69.30
2023-02-27T09:56:17.046Z,69.60
2023-02-27T09:58:48.347Z,69.60
2023-02-27T10:01:23.692Z,68.10
2023-02-27T10:04:28.273Z,67.60
2023-02-27T10:07:17.081Z,67.10
2023-02-27T10:09:56.982Z,68.10
2023-02-27T10:12:34.008Z,66.60
2023-02-27T10:15:16.503Z,65.40
2023-02-27T10:17:55.472Z,65.70
2023-02-27T10:20:33.681Z,89.30
2023-02-27T10:23:05.801Z,65.20
2023-02-27T10:25:39.050Z,65.20
2023-02-27T10:28:14.338Z,64.90
2023-02-27T10:30:41.713Z,66.00
2023-02-27T10:33:10.507Z,65.30
2023-02-27T10:35:42.965Z,66.00
2023-02-27T10:38:14.902Z,65.20
2023-02-27T10:40:42.813Z,64.90
2023-02-27T10:43:13.641Z,64.60
2023-02-27T10:45:40.308Z,64.00
2023-02-27T10:48:07.067Z,64.80
2023-02-27T10:50:37.172Z,63.90
2023-02-27T10:53:25.198Z,63.80
2023-02-27T10:56:07.950Z,85.90
2023-02-27T10:58:36.005Z,64.80
2023-02-27T11:01:06.188Z,63.60
2023-02-27T11:03:40.957Z,62.10
2023-02-27T11:06:22.423Z,62.90
2023-02-27T11:09:23.132Z,62.20
2023-02-27T11:11:51.142Z,61.80
2023-02-27T11:14:28.807Z,62.90
2023-02-27T11:17:00.909Z,61.30
2023-02-27T11:19:35.120Z,61.50
2023-02-27T11:22:20.025Z,62.00
2023-02-27T11:24:47.515Z,61.00
2023-02-27T11:27:20.804Z,61.00
2023-02-27T11:30:02.415Z,60.60
2023-02-27T11:32:42.875Z,59.80
2023-02-27T11:35:39.556Z,60.00
2023-02-27T11:38:20.333Z,59.70
2023-02-27T11:41:08.556Z,59.30
2023-02-27T11:43:41.739Z,59.40
2023-02-27T11:46:44.801Z,58.20
2023-02-27T11:49:29.172Z,58.10
2023-02-27T11:52:17.053Z,58.10
2023-02-27T11:54:50.204Z,57.40
2023-02-27T11:57:25.951Z,58.10
2023-02-27T11:59:55.760Z,57.60
2023-02-27T12:02:25.322Z,56.80
2023-02-27T12:05:20.487Z,56.70
2023-02-27T12:07:55.620Z,56.70
2023-02-27T12:10:32.859Z,55.80
2023-02-27T12:13:05.080Z,55.50
2023-02-27T12:15:48.063Z,77.90
2023-02-27T12:18:27.711Z,55.50
2023-02-27T12:21:12.010Z,54.50
2023-02-27T12:23:46.239Z,54.80
2023-02-27T12:26:19.317Z,54.80
2023-02-27T12:28:58.142Z,55.20
2023-02-27T12:31:56.807Z,54.60
2023-02-27T12:34:30.617Z,54.00
2023-02-27T12:37:03.275Z,55.50
2023-02-27T12:39:32.132Z,54.40
2023-02-27T12:42:25.264Z,53.90
2023-02-27T12:45:21.033Z,54.20
2023-02-27T12:48:05.431Z,53.70
2023-02-27T12:50:50.848Z,53.60
2023-02-27T12:53:48.783Z,53.60
2023-02-27T12:56:20.365Z,53.20
2023-02-27T12:59:14.518Z,54.40
2023-02-27T13:02:12.105Z,52.50
2023-02-27T13:05:03.935Z,52.60
2023-02-27T13:07:38.646Z,53.40
2023-02-27T13:10:34.990Z,52.50
2023-02-27T13:13:12.206Z,53.00
2023-02-27T13:15:57.057Z,52.40
2023-02-27T13:18:45.635Z,52.40
2023-02-27T13:21:21.672Z,51.80
2023-02-27T13:24:02.258Z,52.30
2023-02-27T13:26:45.527Z,52.00
2023-02-27T13:29:18.498Z,51.20
2023-02-27T13:32:30.002Z,51.10
2023-02-27T13:35:43.530Z,51.60
2023-02-27T13:38:48.263Z,50.70
2023-02-27T13:41:36.962Z,50.30
2023-02-27T13:44:22.637Z,50.20
2023-02-27T13:46:49.338Z,50.00
2023-02-27T13:49:28.846Z,50.10
2023-02-27T13:51:59.422Z,49.50
2023-02-27T13:54:30.865Z,49.70
2023-02-27T13:57:19.613Z,49.00
2023-02-27T14:00:05.073Z,49.20
2023-02-27T14:02:56.484Z,49.70
2023-02-27T14:05:39.980Z,49.70
2023-02-27T14:08:21.139Z,48.80
2023-02-27T14:10:58.216Z,49.00
2023-02-27T14:13:54.802Z,48.20
2023-02-27T14:16:43.955Z,48.00
2023-02-27T14:19:17.279Z,49.10
2023-02-27T14:22:12.859Z,48.50
2023-02-27T14:25:00.931Z,48.20
2023-02-27T14:27:39.785Z,48.70
2023-02-27T14:30:42.480Z,48.20
2023-02-27T14:33:24.012Z,48.90
2023-02-27T14:36:04.053Z,48.00
2023-02-27T14:38:33.574Z,47.80
2023-02-27T14:41:08.056Z,48.60
2023-02-27T14:43:40.505Z,48.80
2023-02-27T14:46:14.476Z,47.20
2023-02-27T14:48:41.353Z,46.90
2023-02-27T14:51:08.156Z,47.30
2023-02-27T14:53:34.847Z,47.80
2023-02-27T14:56:01.605Z,47.70
2023-02-27T14:58:28.409Z,46.70
2023-02-27T15:01:10.626Z,47.20
2023-02-27T15:03:45.141Z,46.40
2023-02-27T15:06:19.669Z,46.20
2023-02-27T15:08:50.913Z,47.30
2023-02-27T15:11:21.269Z,46.40
2023-02-27T15:13:54.053Z,45.60
2023-02-27T15:16:23.875Z,46.00
2023-02-27T15:18:57.671Z,46.70
2023-02-27T15:21:26.077Z,63.50
2023-02-27T15:23:58.436Z,45.90
2023-02-27T15:26:25.974Z,45.50
2023-02-27T15:28:52.872Z,45.70
2023-02-27T15:31:23.321Z,45.70
2023-02-27T15:33:51.266Z,45.40
2023-02-27T15:36:27.632Z,45.20
2023-02-27T15:39:03.670Z,45.70
2023-02-27T15:41:30.553Z,44.30
2023-02-27T15:43:57.817Z,44.60
2023-02-27T15:46:25.603Z,44.00
2023-02-27T15:48:54.038Z,45.10
2023-02-27T15:51:20.844Z,43.90
2023-02-27T15:53:53.858Z,44.60
2023-02-27T15:56:27.346Z,43.90
2023-02-27T15:59:00.223Z,44.40
2023-02-27T16:01:30.678Z,43.70
2023-02-27T16:03:59.956Z,43.40
2023-02-27T16:06:29.189Z,42.70
2023-02-27T16:09:00.458Z,43.70
2023-02-27T16:11:33.562Z,42.80
2023-02-27T16:14:01.044Z,42.50
2023-02-27T16:16:35.049Z,42.20
2023-02-27T16:19:23.872Z,42.30
2023-02-27T16:22:14.896Z,42.70
2023-02-27T16:24:42.848Z,41.80
2023-02-27T16:27:26.605Z,41.70
2023-02-27T16:29:56.539Z,41.20
2023-02-27T16:32:26.780Z,40.80
2023-02-27T16:35:02.228Z,41.80
2023-02-27T16:37:39.003Z,40.00
2023-02-27T16:40:14.898Z,41.00
2023-02-27T16:42:41.957Z,40.10
2023-02-27T16:45:14.855Z,39.80
2023-02-27T16:47:41.545Z,39.50
2023-02-27T16:50:20.712Z,38.40
2023-02-27T16:52:47.865Z,38.80
2023-02-27T16:55:14.807Z,38.80
2023-02-27T16:57:41.537Z,39.10
2023-02-27T17:00:12.877Z,39.70
2023-02-27T17:02:39.600Z,38.10
2023-02-27T17:05:07.144Z,38.00
2023-02-27T17:07:33.902Z,37.80
2023-02-27T17:10:00.577Z,37.50
2023-02-27T17:12:27.483Z,37.50
2023-02-27T17:14:54.251Z,36.90
2023-02-27T17:17:20.981Z,36.60
2023-02-27T17:19:47.864Z,37.40
2023-02-27T17:22:15.196Z,36.00
2023-02-27T17:24:42.100Z,36.40
2023-02-27T17:27:09.410Z,36.20
2023-02-27T17:29:38.644Z,35.90
2023-02-27T17:32:06.403Z,35.90
2023-02-27T17:34:33.258Z,35.70
2023-02-27T17:37:00.064Z,35.90
2023-02-27T17:39:26.799Z,35.70
2023-02-27T17:41:54.440Z,34.70
2023-02-27T17:44:21.487Z,35.10
2023-02-27T17:46:48.281Z,34.40
2023-02-27T17:49:15.009Z,35.20
2023-02-27T17:51:41.770Z,33.80
2023-02-27T17:54:08.458Z,34.10
2023-02-27T17:56:36.941Z,33.80
2023-02-27T17:59:04.538Z,33.90
2023-02-27T18:01:31.354Z,34.00
2023-02-27T18:03:58.232Z,33.00
2023-02-27T18:06:25.274Z,32.90
2023-02-27T18:08:52.295Z,33.20
2023-02-27T18:11:21.065Z,32.00
2023-02-27T18:13:48.240Z,33.00
2023-02-27T18:16:15.438Z,32.40
2023-02-27T18:18:42.834Z,32.50
2023-02-27T18:21:20.138Z,31.80
2023-02-27T18:23:47.819Z,31.90
2023-02-27T18:26:30.459Z,31.80
2023-02-27T18:29:04.112Z,31.90
2023-02-27T18:31:33.466Z,31.50
2023-02-27T18:34:01.159Z,32.60
2023-02-27T18:36:29.679Z,31.50
2023-02-27T18:38:57.388Z,31.30
2023-02-27T18:41:24.200Z,31.30
2023-02-27T18:43:51.119Z,30.60
2023-02-27T18:46:18.585Z,30.70
2023-02-27T18:48:46.271Z,30.60
2023-02-27T18:51:15.867Z,30.60
2023-02-27T18:53:48.070Z,30.90
2023-02-27T18:56:16.987Z,30.40
2023-02-27T18:58:43.965Z,31.00
2023-02-27T19:01:19.725Z,29.80
2023-02-27T19:03:46.532Z,29.80
2023-02-27T19:06:13.476Z,29.60
2023-02-27T19:08:40.250Z,29.20
2023-02-27T19:11:07.134Z,29.60
2023-02-27T19:13:33.803Z,30.40
2023-02-27T19:16:06.089Z,29.40
2023-02-27T19:18:32.906Z,29.50
2023-02-27T19:21:04.578Z,29.00
2023-02-27T19:23:31.393Z,29.20
2023-02-27T19:26:00.548Z,28.80
2023-02-27T19:28:27.608Z,28.20
2023-02-27T19:30:54.405Z,28.30
2023-02-27T19:33:21.128Z,28.20
2023-02-27T19:35:47.837Z,29.00
2023-02-27T19:38:14.686Z,28.00
2023-02-27T19:40:41.488Z,28.00
2023-02-27T19:43:08.463Z,27.90
2023-02-27T19:45:35.248Z,28.50
2023-02-27T19:48:02.430Z,27.60
2023-02-27T19:50:30.261Z,27.20
2023-02-27T19:52:56.997Z,27.30
2023-02-27T19:55:24.015Z,27.20
2023-02-27T19:57:50.720Z,27.20
2023-02-27T20:00:18.112Z,27.10
2023-02-27T20:02:44.855Z,27.60
2023-02-27T20:05:11.964Z,26.90
2023-02-27T20:07:39.187Z,27.00
2023-02-27T20:10:06.123Z,27.00
2023-02-27T20:12:32.797Z,26.90
2023-02-27T20:14:59.492Z,26.80
2023-02-27T20:17:26.224Z,27.90
2023-02-27T20:19:53.090Z,26.80
2023-02-27T20:22:19.757Z,26.50
2023-02-27T20:24:46.469Z,26.70
2023-02-27T20:27:15.131Z,27.50
2023-02-27T20:29:41.803Z,26.40
2023-02-27T20:32:08.892Z,25.90
2023-02-27T20:34:35.918Z,26.00
2023-02-27T20:37:03.149Z,25.90
2023-02-27T20:39:29.918Z,26.70
2023-02-27T20:41:56.724Z,26.50
2023-02-27T20:44:23.419Z,41.70
2023-02-27T20:46:50.193Z,26.00
2023-02-27T20:49:17.166Z,25.80
2023-02-27T20:51:44.270Z,25.80
2023-02-27T20:54:16.460Z,25.30
2023-02-27T20:56:43.699Z,25.70
2023-02-27T20:59:15.002Z,25.80
2023-02-27T21:01:43.405Z,25.80
2023-02-27T21:04:10.326Z,25.40
2023-02-27T21:06:37.128Z,25.30
2023-02-27T21:09:06.264Z,25.20
2023-02-27T21:11:34.030Z,26.00
2023-02-27T21:14:09.102Z,25.50
2023-02-27T21:16:36.821Z,25.00
2023-02-27T21:19:04.232Z,24.80
2023-02-27T21:21:33.725Z,25.00
2023-02-27T21:24:01.260Z,25.30
2023-02-27T21:26:33.320Z,25.70
2023-02-27T21:29:09.191Z,25.40
2023-02-27T21:31:37.322Z,24.00
2023-02-27T21:34:08.336Z,24.10
2023-02-27T21:36:42.177Z,23.60
2023-02-27T21:39:11.941Z,23.90
2023-02-27T21:41:39.266Z,23.30
2023-02-27T21:44:08.304Z,22.50
2023-02-27T21:46:35.156Z,23.00
2023-02-27T21:49:02.269Z,22.60
2023-02-27T21:51:40.005Z,22.70
2023-02-27T21:54:09.777Z,22.90
2023-02-27T21:56:36.594Z,23.90
2023-02-27T21:59:04.145Z,23.60
2023-02-27T22:01:32.082Z,23.60
2023-02-27T22:03:59.241Z,24.00
2023-02-27T22:06:28.357Z,24.00
2023-02-27T22:08:59.771Z,24.20
2023-02-27T22:11:27.941Z,24.50
2023-02-27T22:13:55.379Z,24.90
2023-02-27T22:16:22.261Z,24.90
2023-02-27T22:18:49.145Z,25.20
2023-02-27T22:21:22.838Z,25.60
2023-02-27T22:23:50.266Z,42.50
2023-02-27T22:26:24.041Z,25.80
2023-02-27T22:28:52.287Z,26.00
2023-02-27T22:31:21.194Z,26.40
2023-02-27T22:33:51.035Z,26.30
2023-02-27T22:36:20.745Z,26.20
2023-02-27T22:38:48.251Z,26.70
2023-02-27T22:41:17.586Z,26.80
2023-02-27T22:43:45.295Z,26.90
2023-02-27T22:46:14.540Z,26.70
2023-02-27T22:48:41.256Z,27.20
2023-02-27T22:51:12.591Z,27.40
2023-02-27T22:53:40.188Z,28.20
2023-02-27T22:56:14.714Z,27.90
2023-02-27T22:58:43.276Z,27.70
2023-02-27T23:01:17.379Z,27.30
2023-02-27T23:03:47.120Z,28.60
2023-02-27T23:06:16.427Z,28.60
2023-02-27T23:08:44.528Z,29.10
2023-02-27T23:11:13.058Z,29.50
2023-02-27T23:13:40.072Z,28.90
2023-02-27T23:16:12.422Z,29.40
2023-02-27T23:18:47.774Z,29.50
2023-02-27T23:21:16.617Z,29.50
2023-02-27T23:23:43.684Z,29.50
2023-02-27T23:26:10.889Z,30.00
2023-02-27T23:28:37.905Z,30.70
2023-02-27T23:31:06.562Z,31.70
2023-02-27T23:33:33.805Z,31.20
2023-02-27T23:36:01.406Z,31.90
2023-02-27T23:38:29.083Z,31.80
2023-02-27T23:40:56.098Z,32.40
2023-02-27T23:43:41.979Z,32.60
2023-02-27T23:46:11.283Z,33.90
2023-02-27T23:48:38.656Z,33.70
2023-02-27T23:51:07.015Z,33.70
2023-02-27T23:53:34.528Z,34.30
2023-02-27T23:56:01.736Z,34.90
2023-02-27T23:58:28.429Z,35.00
